createdAt,value
2023-04-19T00:01:25.175Z,22.60
2023-04-19T00:04:28.444Z,18.70
2023-04-19T00:07:33.269Z,19.35
2023-04-19T00:10:37.486Z,18.95
2023-04-19T00:13:40.718Z,20.60
2023-04-19T00:16:44.083Z,19.88
2023-04-19T00:19:47.767Z,18.85
2023-04-19T00:22:52.357Z,19.08
2023-04-19T00:25:55.550Z,20.80
2023-04-19T00:28:58.766Z,17.73
2023-04-19T00:32:02.036Z,19.75
2023-04-19T00:35:07.328Z,17.20
2023-04-19T00:38:11.859Z,18.20
2023-04-19T00:41:15.037Z,16.63
2023-04-19T00:44:18.163Z,21.15
2023-04-19T00:47:21.763Z,21.50
2023-04-19T00:50:25.182Z,18.48
2023-04-19T00:53:29.788Z,23.23
2023-04-19T00:56:35.154Z,21.92
2023-04-19T00:59:38.832Z,25.17
2023-04-19T01:02:42.207Z,26.02
2023-04-19T01:05:45.499Z,24.67
2023-04-19T01:08:51.062Z,28.08
2023-04-19T01:11:54.300Z,23.83
2023-04-19T01:14:57.771Z,27.98
2023-04-19T01:18:02.144Z,25.95
2023-04-19T01:21:06.875Z,24.33
2023-04-19T01:24:11.509Z,25.88
2023-04-19T01:27:16.602Z,30.85
2023-04-19T01:30:19.849Z,30.27
2023-04-19T01:33:23.980Z,30.90
2023-04-19T01:36:27.756Z,31.38
2023-04-19T01:39:32.485Z,30.55
2023-04-19T01:42:37.036Z,30.05
2023-04-19T01:45:40.242Z,31.35
2023-04-19T01:48:43.407Z,29.92
2023-04-19T01:51:47.539Z,34.58
2023-04-19T01:54:52.089Z,35.83
2023-04-19T01:57:55.379Z,32.55
2023-04-19T02:04:34.829Z,34.50
2023-04-19T02:07:38.334Z,31.77
2023-04-19T02:10:42.942Z,32.38
2023-04-19T02:13:46.178Z,36.03
2023-04-19T02:16:51.016Z,32.25
2023-04-19T02:19:54.388Z,33.95
2023-04-19T02:22:57.636Z,33.20
2023-04-19T02:26:03.202Z,33.53
2023-04-19T02:29:07.137Z,29.25
2023-04-19T02:32:11.021Z,30.42
2023-04-19T02:35:14.882Z,32.75
2023-04-19T02:38:31.973Z,28.38
2023-04-19T02:41:53.405Z,32.47
2023-04-19T02:44:59.098Z,32.58
2023-04-19T02:48:02.530Z,30.15
2023-04-19T02:51:06.054Z,31.80
2023-04-19T02:54:09.808Z,31.63
2023-04-19T02:57:14.788Z,30.35
2023-04-19T03:00:20.187Z,25.85
2023-04-19T03:03:36.345Z,27.33
2023-04-19T03:06:39.952Z,25.35
2023-04-19T03:09:43.196Z,31.05
2023-04-19T03:12:47.892Z,29.80
2023-04-19T03:15:51.614Z,28.48
2023-04-19T03:18:58.723Z,29.65
2023-04-19T03:22:07.619Z,33.30
2023-04-19T03:25:13.469Z,29.40
2023-04-19T03:28:20.944Z,27.20
2023-04-19T03:35:04.040Z,27.73
2023-04-19T03:38:07.280Z,31.88
2023-04-19T03:41:20.156Z,30.67
2023-04-19T03:44:25.879Z,26.42
2023-04-19T03:47:30.296Z,27.77
2023-04-19T03:50:34.867Z,31.00
2023-04-19T03:53:38.542Z,32.35
2023-04-19T03:56:41.883Z,30.77
2023-04-19T03:59:46.980Z,34.92
2023-04-19T04:02:50.803Z,32.17
2023-04-19T04:05:54.524Z,30.63
2023-04-19T04:08:57.918Z,31.52
2023-04-19T04:12:02.072Z,30.38
2023-04-19T04:15:08.852Z,30.23
2023-04-19T04:18:16.288Z,31.35
2023-04-19T04:21:19.743Z,30.80
2023-04-19T04:24:24.144Z,29.10
2023-04-19T04:27:48.544Z,28.73
2023-04-19T04:30:58.118Z,28.90
2023-04-19T04:34:03.035Z,33.13
2023-04-19T04:37:08.681Z,29.25
2023-04-19T04:40:14.494Z,31.52
2023-04-19T04:43:17.927Z,30.65
2023-04-19T04:46:24.090Z,30.98
2023-04-19T04:49:28.090Z,29.92
2023-04-19T04:52:31.781Z,29.48
2023-04-19T04:55:43.096Z,29.35
2023-04-19T04:58:49.266Z,34.78
2023-04-19T05:02:03.253Z,31.17
2023-04-19T05:05:07.513Z,32.97
2023-04-19T05:08:10.859Z,33.58
2023-04-19T05:11:16.261Z,31.13
2023-04-19T05:14:20.339Z,31.13
2023-04-19T05:17:25.311Z,32.45
2023-04-19T05:20:28.763Z,31.30
2023-04-19T05:23:42.449Z,31.05
2023-04-19T05:26:47.146Z,33.65
2023-04-19T05:29:51.426Z,32.60
2023-04-19T05:32:56.709Z,31.25
2023-04-19T05:36:00.147Z,30.85
2023-04-19T05:39:03.533Z,35.22
2023-04-19T05:42:07.584Z,35.28
2023-04-19T05:45:12.070Z,33.67
2023-04-19T05:48:17.160Z,31.67
2023-04-19T05:55:04.508Z,31.77
2023-04-19T05:58:09.456Z,33.65
2023-04-19T06:01:13.208Z,29.60
2023-04-19T06:04:18.325Z,37.60
2023-04-19T06:07:32.683Z,31.02
2023-04-19T06:10:52.773Z,32.67
2023-04-19T06:13:58.884Z,32.72
2023-04-19T06:17:02.385Z,33.60
2023-04-19T06:20:09.791Z,33.58
2023-04-19T06:23:14.788Z,33.30
2023-04-19T06:26:18.393Z,38.42
2023-04-19T06:29:23.715Z,32.30
2023-04-19T06:32:27.012Z,33.83
2023-04-19T06:35:32.040Z,31.10
2023-04-19T06:38:35.457Z,31.25
2023-04-19T06:41:38.738Z,31.17
2023-04-19T06:44:42.625Z,33.22
2023-04-19T06:47:46.077Z,31.20
2023-04-19T06:50:50.892Z,30.60
2023-04-19T06:53:54.171Z,35.42
2023-04-19T06:56:58.454Z,31.33
2023-04-19T07:00:02.174Z,32.92
2023-04-19T07:03:05.691Z,32.13
2023-04-19T07:06:11.491Z,32.55
2023-04-19T07:09:14.743Z,29.77
2023-04-19T07:12:18.024Z,29.15
2023-04-19T07:15:21.401Z,29.92
2023-04-19T07:18:24.807Z,30.83
2023-04-19T07:21:33.251Z,23.63
2023-04-19T07:24:36.524Z,23.88
2023-04-19T07:27:39.848Z,23.25
2023-04-19T07:30:45.971Z,21.67
2023-04-19T07:33:49.265Z,24.35
2023-04-19T07:36:53.948Z,23.15
2023-04-19T07:39:57.209Z,26.80
2023-04-19T07:43:00.449Z,24.73
2023-04-19T07:46:04.033Z,25.70
2023-04-19T07:49:07.687Z,22.85
2023-04-19T07:52:12.343Z,26.38
2023-04-19T07:55:15.777Z,24.15
2023-04-19T07:58:19.123Z,22.17
2023-04-19T08:01:22.449Z,24.23
2023-04-19T08:04:26.290Z,22.77
2023-04-19T08:07:31.864Z,21.20
2023-04-19T08:10:35.912Z,23.60
2023-04-19T08:13:40.387Z,23.15
2023-04-19T08:17:19.192Z,22.83
2023-04-19T08:20:08.293Z,22.33
2023-04-19T08:23:22.409Z,21.35
2023-04-19T08:26:29.213Z,23.52
2023-04-19T08:29:33.528Z,22.70
2023-04-19T08:32:36.791Z,22.75
2023-04-19T08:35:41.331Z,23.13
2023-04-19T08:38:51.866Z,20.85
2023-04-19T08:42:10.499Z,18.58
2023-04-19T08:48:29.272Z,19.75
2023-04-19T08:51:34.044Z,21.95
2023-04-19T08:54:38.949Z,23.02
2023-04-19T08:57:42.572Z,23.75
2023-04-19T09:00:46.101Z,22.42
2023-04-19T09:04:01.039Z,20.10
2023-04-19T09:07:10.294Z,23.27
2023-04-19T09:10:16.998Z,22.65
2023-04-19T09:13:20.394Z,23.67
2023-04-19T09:16:26.895Z,23.00
2023-04-19T09:19:47.491Z,22.50
2023-04-19T09:23:05.261Z,24.92
2023-04-19T09:26:23.054Z,22.73
2023-04-19T09:29:27.607Z,26.08
2023-04-19T09:32:46.174Z,23.15
2023-04-19T09:35:49.732Z,22.92
2023-04-19T09:38:53.453Z,25.45
2023-04-19T09:41:58.452Z,27.50
2023-04-19T09:45:28.391Z,25.38
2023-04-19T09:48:25.162Z,24.35
2023-04-19T09:51:41.907Z,20.48
2023-04-19T09:54:46.699Z,24.58
2023-04-19T09:57:52.989Z,20.95
2023-04-19T10:01:10.776Z,22.77
2023-04-19T10:04:36.345Z,21.63
2023-04-19T10:07:45.797Z,19.40
2023-04-19T10:10:54.851Z,22.38
2023-04-19T10:14:02.734Z,22.13
2023-04-19T10:17:06.302Z,22.10
2023-04-19T10:20:18.157Z,27.33
2023-04-19T10:23:22.206Z,24.02
2023-04-19T10:26:25.766Z,23.60
2023-04-19T10:29:57.876Z,22.65
2023-04-19T10:33:04.170Z,24.45
2023-04-19T10:36:11.258Z,21.30
2023-04-19T10:39:42.107Z,21.77
2023-04-19T10:43:16.085Z,24.90
2023-04-19T10:46:40.105Z,24.58
2023-04-19T10:49:47.166Z,21.77
2023-04-19T10:52:50.448Z,19.45
2023-04-19T10:55:53.752Z,21.83
2023-04-19T10:59:22.384Z,18.75
2023-04-19T11:02:32.556Z,20.70
2023-04-19T11:06:20.215Z,16.13
2023-04-19T11:09:24.223Z,16.92
2023-04-19T11:12:27.810Z,15.25
2023-04-19T11:15:31.177Z,19.33
2023-04-19T11:18:36.007Z,15.80
2023-04-19T11:21:41.803Z,16.23
2023-04-19T11:24:48.316Z,20.30
2023-04-19T11:27:53.390Z,15.13
2023-04-19T11:30:57.703Z,12.90
2023-04-19T11:34:03.811Z,11.63
2023-04-19T11:37:07.430Z,15.68
2023-04-19T11:40:16.101Z,12.07
2023-04-19T11:43:19.597Z,11.27
2023-04-19T11:46:22.773Z,11.55
2023-04-19T11:49:31.803Z,15.07
2023-04-19T11:52:36.852Z,10.07
2023-04-19T11:55:40.767Z,9.85
2023-04-19T11:58:45.442Z,6.18
2023-04-19T12:01:48.749Z,9.05
2023-04-19T12:04:53.696Z,7.90
2023-04-19T12:08:04.928Z,6.22
2023-04-19T12:11:08.522Z,5.18
2023-04-19T12:14:12.981Z,7.45
2023-04-19T12:17:16.737Z,7.43
2023-04-19T12:20:31.999Z,7.40
2023-04-19T12:23:35.387Z,6.57
2023-04-19T12:26:55.831Z,14.43
2023-04-19T12:29:59.760Z,6.63
2023-04-19T12:33:03.405Z,4.78
2023-04-19T12:36:08.819Z,7.10
2023-04-19T12:39:12.082Z,9.90
2023-04-19T12:42:15.833Z,11.15
2023-04-19T12:45:19.785Z,8.10
2023-04-19T12:48:23.192Z,3.80
2023-04-19T12:51:27.998Z,6.25
2023-04-19T12:54:31.390Z,6.78
2023-04-19T12:57:34.960Z,5.07
2023-04-19T13:00:38.138Z,5.40
2023-04-19T13:03:41.927Z,7.30
2023-04-19T13:06:47.230Z,7.20
2023-04-19T13:09:50.554Z,3.28
2023-04-19T13:12:53.806Z,4.93
2023-04-19T13:15:57.072Z,3.70
2023-04-19T13:19:00.530Z,6.05
2023-04-19T13:22:05.372Z,3.63
2023-04-19T13:25:09.292Z,9.25
2023-04-19T13:28:12.564Z,4.70
2023-04-19T13:31:15.910Z,5.70
2023-04-19T13:34:19.418Z,9.98
2023-04-19T13:37:24.743Z,3.47
2023-04-19T13:40:28.049Z,4.68
2023-04-19T13:43:31.431Z,4.57
2023-04-19T13:46:34.870Z,9.98
2023-04-19T13:49:38.113Z,5.60
2023-04-19T13:52:42.708Z,8.10
2023-04-19T13:55:50.006Z,7.63
2023-04-19T13:58:54.345Z,5.00
2023-04-19T14:01:57.661Z,5.93
2023-04-19T14:05:01.006Z,7.80
2023-04-19T14:08:06.314Z,6.57
2023-04-19T14:11:09.527Z,6.18
2023-04-19T14:14:12.758Z,7.97
2023-04-19T14:17:16.111Z,8.73
2023-04-19T14:20:19.431Z,7.15
2023-04-19T14:23:24.127Z,5.88
2023-04-19T14:26:27.690Z,7.88
2023-04-19T14:29:32.015Z,7.30
2023-04-19T14:32:36.075Z,9.70
2023-04-19T14:35:39.460Z,6.72
2023-04-19T14:38:44.434Z,8.10
2023-04-19T14:41:47.692Z,4.97
2023-04-19T14:44:52.851Z,6.60
2023-04-19T14:47:56.187Z,12.55
2023-04-19T14:50:59.827Z,6.40
2023-04-19T14:54:04.512Z,6.40
2023-04-19T14:57:07.809Z,4.95
2023-04-19T15:00:12.356Z,6.05
2023-04-19T15:03:16.171Z,6.80
2023-04-19T15:06:19.628Z,7.50
2023-04-19T15:09:25.315Z,12.43
2023-04-19T15:12:28.558Z,7.95
2023-04-19T15:15:31.813Z,9.63
2023-04-19T15:18:35.503Z,5.68
2023-04-19T15:21:38.789Z,6.10
2023-04-19T15:24:43.625Z,10.93
2023-04-19T15:27:47.530Z,9.85
2023-04-19T15:30:59.003Z,5.75
2023-04-19T15:34:03.684Z,4.95
2023-04-19T15:37:08.074Z,7.50
2023-04-19T15:40:14.531Z,7.78
2023-04-19T15:43:18.116Z,4.57
2023-04-19T15:46:21.340Z,5.78
2023-04-19T15:49:24.660Z,5.97
2023-04-19T15:52:28.168Z,9.45
2023-04-19T15:55:33.855Z,7.03
2023-04-19T15:58:37.456Z,7.00
2023-04-19T16:01:40.889Z,7.15
2023-04-19T16:04:47.287Z,7.03
2023-04-19T16:08:01.618Z,13.48
2023-04-19T16:11:08.933Z,13.93
2023-04-19T16:14:12.281Z,14.32
2023-04-19T16:17:15.634Z,11.02
2023-04-19T16:20:19.214Z,7.57
2023-04-19T16:23:24.235Z,11.88
2023-04-19T16:26:29.029Z,5.32
2023-04-19T16:29:32.438Z,8.48
2023-04-19T16:32:35.736Z,8.70
2023-04-19T16:35:38.982Z,7.00
2023-04-19T16:38:42.253Z,13.77
2023-04-19T16:41:46.929Z,7.68
2023-04-19T16:44:50.338Z,8.55
2023-04-19T16:47:53.880Z,9.85
2023-04-19T16:50:57.435Z,13.40
2023-04-19T16:54:00.853Z,8.18
2023-04-19T16:57:05.974Z,10.93
2023-04-19T17:00:10.938Z,12.48
2023-04-19T17:03:14.494Z,11.20
2023-04-19T17:06:17.839Z,9.52
2023-04-19T17:09:21.771Z,13.52
2023-04-19T17:12:28.730Z,11.07
2023-04-19T17:15:32.582Z,12.75
2023-04-19T17:18:35.835Z,16.98
2023-04-19T17:21:39.120Z,13.15
2023-04-19T17:24:44.088Z,11.00
2023-04-19T17:27:48.697Z,11.57
2023-04-19T17:30:51.965Z,12.82
2023-04-19T17:33:55.935Z,14.25
2023-04-19T17:36:59.515Z,15.95
2023-04-19T17:40:02.994Z,21.25
2023-04-19T17:43:08.556Z,15.50
2023-04-19T17:46:12.645Z,13.70
2023-04-19T17:49:17.535Z,17.45
2023-04-19T17:52:21.043Z,17.48
2023-04-19T17:55:26.624Z,20.45
2023-04-19T17:58:31.379Z,15.65
2023-04-19T18:01:37.055Z,17.35
2023-04-19T18:04:44.677Z,18.27
2023-04-19T18:07:48.884Z,15.88
2023-04-19T18:10:52.411Z,16.98
2023-04-19T18:13:57.432Z,15.13
2023-04-19T18:17:01.687Z,18.85
2023-04-19T18:20:06.877Z,21.58
2023-04-19T18:23:10.306Z,23.75
2023-04-19T18:26:14.226Z,36.17
2023-04-19T18:29:20.778Z,42.97
2023-04-19T18:32:27.103Z,30.27
2023-04-19T18:35:30.702Z,34.03
2023-04-19T18:38:34.206Z,45.08
2023-04-19T18:41:37.805Z,42.47
2023-04-19T18:47:48.907Z,41.80
2023-04-19T18:50:52.995Z,30.13
2023-04-19T18:53:56.604Z,36.47
2023-04-19T18:57:21.573Z,43.28
2023-04-19T19:00:25.299Z,40.17
2023-04-19T19:03:53.919Z,36.72
2023-04-19T19:06:53.690Z,41.13
2023-04-19T19:10:01.762Z,40.97
2023-04-19T19:13:07.789Z,41.83
2023-04-19T19:16:12.846Z,38.15
2023-04-19T19:19:16.876Z,31.58
2023-04-19T19:22:27.848Z,38.25
2023-04-19T19:25:32.503Z,34.97
2023-04-19T19:28:35.776Z,40.22
2023-04-19T19:31:40.572Z,40.08
2023-04-19T19:34:54.945Z,46.58
2023-04-19T19:38:02.272Z,46.10
2023-04-19T19:41:49.597Z,45.03
2023-04-19T19:44:30.508Z,40.05
2023-04-19T19:47:39.163Z,35.70
2023-04-19T19:51:17.195Z,30.38
2023-04-19T19:54:11.430Z,26.77
2023-04-19T20:03:36.860Z,23.02
2023-04-19T20:09:52.847Z,23.17
2023-04-19T20:12:58.711Z,31.15
2023-04-19T20:16:02.852Z,29.70
2023-04-19T20:19:20.735Z,30.15
2023-04-19T20:22:24.350Z,31.85
2023-04-19T20:25:27.812Z,27.45
2023-04-19T20:28:31.190Z,33.05
2023-04-19T20:31:34.583Z,42.72
2023-04-19T20:34:39.782Z,47.65
2023-04-19T20:37:44.376Z,49.30
2023-04-19T20:40:47.704Z,36.30
2023-04-19T20:43:50.999Z,27.70
2023-04-19T20:46:56.098Z,23.73
2023-04-19T20:50:00.844Z,25.83
2023-04-19T20:53:04.311Z,34.60
2023-04-19T20:56:07.648Z,32.05
2023-04-19T20:59:11.018Z,40.47
2023-04-19T21:02:14.994Z,40.38
2023-04-19T21:05:19.719Z,38.80
2023-04-19T21:08:24.700Z,41.95
2023-04-19T21:11:28.006Z,43.55
2023-04-19T21:14:33.466Z,37.08
2023-04-19T21:17:36.745Z,37.35
2023-04-19T21:20:41.645Z,30.40
2023-04-19T21:23:44.894Z,35.60
2023-04-19T21:26:48.226Z,27.10
2023-04-19T21:29:51.539Z,29.65
2023-04-19T21:32:54.968Z,31.02
2023-04-19T21:35:59.611Z,25.33
2023-04-19T21:39:03.001Z,22.80
2023-04-19T21:42:06.396Z,28.25
2023-04-19T21:45:10.743Z,26.25
2023-04-19T21:48:14.044Z,23.23
2023-04-19T21:51:18.754Z,28.33
2023-04-19T21:54:32.810Z,28.88
2023-04-19T21:57:38.367Z,28.88
2023-04-19T22:00:42.059Z,28.80
2023-04-19T22:03:47.192Z,33.25
2023-04-19T22:06:52.116Z,28.88
2023-04-19T22:09:56.856Z,26.27
2023-04-19T22:13:00.114Z,23.77
2023-04-19T22:16:03.429Z,20.60
2023-04-19T22:19:07.936Z,25.70
2023-04-19T22:22:12.565Z,28.17
2023-04-19T22:25:15.840Z,36.63
2023-04-19T22:28:19.079Z,38.03
2023-04-19T22:31:22.271Z,38.08
2023-04-19T22:34:25.887Z,35.03
2023-04-19T22:37:30.531Z,30.42
2023-04-19T22:40:33.800Z,27.40
2023-04-19T22:43:37.849Z,23.75
2023-04-19T22:46:41.124Z,24.38
2023-04-19T22:49:45.039Z,21.10
2023-04-19T22:52:49.726Z,22.77
2023-04-19T22:55:53.021Z,23.10
2023-04-19T22:58:56.210Z,21.05
2023-04-19T23:01:59.465Z,22.75
2023-04-19T23:05:03.386Z,21.17
2023-04-19T23:08:09.282Z,23.45
2023-04-19T23:11:12.480Z,22.20
2023-04-19T23:14:18.484Z,21.48
2023-04-19T23:17:21.712Z,20.75
2023-04-19T23:20:25.205Z,20.70
2023-04-19T23:23:29.910Z,29.50
2023-04-19T23:26:33.092Z,24.75
2023-04-19T23:29:36.599Z,18.35
2023-04-19T23:32:39.948Z,17.45
2023-04-19T23:35:43.597Z,21.70
2023-04-19T23:38:48.223Z,20.13
2023-04-19T23:41:51.551Z,20.33
2023-04-19T23:44:55.662Z,20.20
2023-04-19T23:47:59.024Z,23.55
2023-04-19T23:51:02.507Z,19.98
2023-04-19T23:54:07.372Z,21.00
2023-04-19T23:57:10.621Z,19.17
